Time;durP1;ratioP1;P1;durP2;ratioP2;P2;SDS_P1;SDS_P2;PMS_P1;PMS_P2;Temp;Humidity;BMP_temperature;BMP_pressure;BME280_temperature;BME280_humidity;BME280_pressure;Samples;Min_cycle;Max_cycle;Signal;HPM_P1;HPM_P2
2021/04/04 04:00:12;;;;;;;2.05;1.50;;;-4.90;96.30;;;;;;6103079;23;20375;31
2021/04/04 04:02:41;;;;;;;2.17;1.47;;;-5.00;96.30;;;;;;4927770;29;20473;-78
2021/04/04 04:05:08;;;;;;;2.23;1.30;;;-5.10;96.30;;;;;;4920469;29;21010;-78
2021/04/04 04:07:34;;;;;;;2.63;1.60;;;-5.20;96.30;;;;;;4934842;29;20403;-78
2021/04/04 04:10:01;;;;;;;4.63;1.83;;;-5.10;96.30;;;;;;4933525;29;20423;-78
2021/04/04 04:12:28;;;;;;;6.73;2.20;;;-5.00;96.30;;;;;;4934130;29;20868;-78
2021/04/04 04:14:56;;;;;;;4.50;1.70;;;-4.90;96.30;;;;;;4955006;23;20873;-77
2021/04/04 04:17:24;;;;;;;2.60;1.60;;;-4.90;96.30;;;;;;4953716;29;20418;-77
2021/04/04 04:19:50;;;;;;;3.47;1.77;;;-4.90;96.30;;;;;;4954176;29;20407;-77
2021/04/04 04:22:16;;;;;;;3.80;1.37;;;-5.00;96.30;;;;;;4954073;28;20420;-77
2021/04/04 04:24:42;;;;;;;2.87;1.97;;;-5.00;96.30;;;;;;4952736;28;20449;-78
2021/04/04 04:27:10;;;;;;;2.17;1.80;;;-5.10;96.30;;;;;;4953541;29;20181;-77
2021/04/04 04:29:37;;;;;;;2.87;1.67;;;-5.10;96.30;;;;;;4955028;29;20415;-77
2021/04/04 04:32:04;;;;;;;4.83;1.47;;;-5.10;96.30;;;;;;4957522;29;20468;-79
2021/04/04 04:34:31;;;;;;;1.90;1.30;;;-4.90;96.30;;;;;;4958038;28;20419;-78
2021/04/04 04:36:58;;;;;;;3.33;1.30;;;-4.80;96.30;;;;;;4954148;28;20891;-77
2021/04/04 04:39:24;;;;;;;2.07;1.53;;;-4.70;96.30;;;;;;4952609;29;20542;-77
2021/04/04 04:41:51;;;;;;;2.10;1.50;;;-4.80;96.30;;;;;;4953889;29;20410;-77
2021/04/04 04:44:24;;;;;;;2.27;1.23;;;-4.70;96.30;;;;;;4953846;28;20469;-77
2021/04/04 04:46:50;;;;;;;2.47;1.60;;;-4.60;96.30;;;;;;4954005;29;20453;-78
2021/04/04 04:49:16;;;;;;;5.13;1.70;;;-4.50;96.30;;;;;;4953298;29;20442;-77
2021/04/04 04:51:45;;;;;;;6.63;1.50;;;-4.60;96.30;;;;;;4953733;29;20660;-77
2021/04/04 04:54:10;;;;;;;4.60;1.60;;;-4.50;96.30;;;;;;4952591;28;20470;-77
2021/04/04 04:56:40;;;;;;;3.30;1.80;;;-4.60;96.30;;;;;;4952364;29;21323;-77
2021/04/04 04:59:08;;;;;;;2.30;1.60;;;-4.60;96.30;;;;;;4953125;29;20517;-77
2021/04/04 05:01:38;;;;;;;1.90;1.67;;;-4.50;96.30;;;;;;4952453;29;20422;-77
2021/04/04 05:04:04;;;;;;;3.20;1.73;;;-4.40;96.30;;;;;;4953766;28;20402;-77
2021/04/04 05:06:30;;;;;;;2.90;1.90;;;-4.20;96.30;;;;;;4953829;29;20411;-77
2021/04/04 05:08:58;;;;;;;2.80;2.00;;;-4.10;96.30;;;;;;4953214;29;20450;-77
2021/04/04 05:11:26;;;;;;;5.10;1.87;;;-4.00;96.30;;;;;;4953581;29;20446;-77
2021/04/04 05:13:52;;;;;;;2.20;1.60;;;-4.00;96.30;;;;;;4953410;28;20415;-77
2021/04/04 05:16:18;;;;;;;4.23;1.83;;;-3.90;96.30;;;;;;4953747;29;20502;-78
2021/04/04 05:18:48;;;;;;;3.07;1.70;;;-3.80;96.30;;;;;;4953191;28;20433;-78
2021/04/04 05:21:24;;;;;;;3.07;2.23;;;-3.60;96.30;;;;;;4952577;28;20179;-77
2021/04/04 05:24:01;;;;;;;5.70;2.10;;;-3.30;96.30;;;;;;4957186;28;20969;-78
2021/04/04 05:26:35;;;;;;;2.80;1.80;;;-2.10;96.30;;;;;;4954659;29;20421;-78
2021/04/04 05:29:05;;;;;;;3.30;2.20;;;-0.50;96.30;;;;;;4955975;29;20410;-78
2021/04/04 05:31:31;;;;;;;3.50;1.87;;;1.00;96.30;;;;;;4956695;29;20461;-78
2021/04/04 05:33:57;;;;;;;3.90;2.13;;;2.20;96.30;;;;;;4956454;28;20922;-78
2021/04/04 05:36:23;;;;;;;5.20;1.90;;;3.10;96.30;;;;;;4956675;29;20409;-79
2021/04/04 05:38:54;;;;;;;3.90;1.70;;;4.20;94.20;;;;;;4956149;28;20593;-78
2021/04/04 05:41:22;;;;;;;1.80;1.60;;;4.90;89.90;;;;;;4956452;29;20391;-78
2021/04/04 05:43:57;;;;;;;2.43;1.63;;;5.20;87.50;;;;;;4956861;29;20421;-78
2021/04/04 05:46:30;;;;;;;3.47;1.63;;;5.60;85.60;;;;;;4972833;28;20434;-79
2021/04/04 05:49:16;;;;;;;4.50;2.20;;;5.70;84.80;;;;;;4958254;29;20403;-78
2021/04/04 05:51:42;;;;;;;3.90;2.47;;;6.30;83.40;;;;;;4956001;29;20456;-79
2021/04/04 05:54:37;;;;;;;3.63;2.00;;;6.30;83.10;;;;;;4957973;28;20410;-79
2021/04/04 05:57:12;;;;;;;4.90;2.40;;;6.40;82.20;;;;;;4959087;29;20229;-78
2021/04/04 05:59:47;;;;;;;3.70;2.10;;;7.00;80.10;;;;;;4971980;28;20413;-79
2021/04/04 06:03:00;;;;;;;3.00;2.20;;;7.30;79.90;;;;;;4983940;28;20415;-80
2021/04/04 06:05:29;;;;;;;4.07;2.70;;;8.20;77.40;;;;;;4926035;28;20450;-79
2021/04/04 06:08:32;;;;;;;2.90;2.47;;;8.70;75.30;;;;;;4961182;29;20414;-80
2021/04/04 06:11:07;;;;;;;2.77;2.20;;;8.90;74.30;;;;;;4961510;29;20469;-79
2021/04/04 06:13:44;;;;;;;2.20;1.77;;;8.50;74.90;;;;;;4961149;28;20874;-80
2021/04/04 06:16:38;;;;;;;3.10;1.97;;;8.90;73.10;;;;;;4967947;28;20548;-79
2021/04/04 06:19:36;;;;;;;3.30;1.97;;;9.20;73.40;;;;;;4943279;29;20410;-80
2021/04/04 06:22:23;;;;;;;3.90;2.17;;;9.10;72.60;;;;;;4940252;29;20462;-80
2021/04/04 06:25:14;;;;;;;4.30;2.30;;;8.90;75.10;;;;;;4948657;29;20493;-79
2021/04/04 06:28:04;;;;;;;4.27;2.20;;;9.50;72.70;;;;;;4957370;29;20758;-79
2021/04/04 06:30:49;;;;;;;4.03;2.53;;;10.20;70.70;;;;;;4940106;29;20479;-79
2021/04/04 06:33:22;;;;;;;2.93;2.47;;;10.50;69.60;;;;;;4944601;29;20388;-79
2021/04/04 06:36:03;;;;;;;3.03;2.00;;;9.80;70.80;;;;;;4956868;28;20441;-80
2021/04/04 06:38:59;;;;;;;4.80;2.00;;;10.50;69.40;;;;;;4970250;28;20445;-79
2021/04/04 06:41:30;;;;;;;3.30;2.20;;;10.00;70.50;;;;;;4976451;28;20873;-77
2021/04/04 06:44:12;;;;;;;4.00;2.27;;;10.40;69.80;;;;;;4974460;28;20471;-78
2021/04/04 06:47:15;;;;;;;3.77;2.70;;;11.00;68.70;;;;;;4975298;28;20502;-79
2021/04/04 06:50:02;;;;;;;3.30;2.10;;;11.80;67.90;;;;;;4975916;28;20410;-79
2021/04/04 06:52:58;;;;;;;2.10;1.90;;;12.10;66.30;;;;;;4977285;28;20460;-79
2021/04/04 06:55:45;;;;;;;2.77;2.27;;;11.20;70.10;;;;;;4979715;28;20476;-80
2021/04/04 06:58:38;;;;;;;2.40;2.17;;;11.80;68.20;;;;;;4970264;28;20406;-80
2021/04/04 07:01:40;;;;;;;4.00;1.90;;;13.40;62.70;;;;;;4958312;29;20415;-80
2021/04/04 07:04:13;;;;;;;3.67;2.10;;;13.80;62.10;;;;;;4958454;29;20417;-80
2021/04/04 07:07:01;;;;;;;3.93;2.30;;;13.80;62.40;;;;;;4960492;28;20493;-80
2021/04/04 07:09:40;;;;;;;3.60;2.10;;;14.50;61.10;;;;;;4957885;29;20391;-80
2021/04/04 07:12:30;;;;;;;2.93;2.00;;;14.80;57.20;;;;;;4938496;29;20557;-81
2021/04/04 07:15:29;;;;;;;4.50;2.70;;;15.00;58.20;;;;;;4942793;29;21014;-79
2021/04/04 07:18:21;;;;;;;4.30;1.70;;;15.10;57.80;;;;;;4958321;29;20395;-81
2021/04/04 07:21:28;;;;;;;3.10;1.80;;;15.50;56.80;;;;;;4959600;28;20399;-81
2021/04/04 07:24:33;;;;;;;3.73;2.07;;;15.20;55.60;;;;;;4927445;28;20911;-81
2021/04/04 07:27:08;;;;;;;3.20;2.43;;;15.40;57.70;;;;;;4962790;28;20438;-82
2021/04/04 07:29:58;;;;;;;7.00;2.10;;;15.00;56.40;;;;;;4959480;28;20402;-81
2021/04/04 07:32:42;;;;;;;3.43;2.20;;;13.90;58.30;;;;;;4957758;29;20465;-81
2021/04/04 07:35:28;;;;;;;4.33;1.90;;;13.40;59.00;;;;;;4959262;28;20435;-81
2021/04/04 07:38:00;;;;;;;3.37;1.73;;;12.80;60.60;;;;;;4971269;28;20434;-81
2021/04/04 07:40:32;;;;;;;3.30;2.17;;;12.60;61.30;;;;;;4949018;28;20466;-81
2021/04/04 07:43:05;;;;;;;3.10;1.83;;;12.40;62.40;;;;;;4948077;29;20433;-79
2021/04/04 07:46:06;;;;;;;1.87;1.53;;;12.00;64.30;;;;;;4953822;28;20478;-80
2021/04/04 07:48:52;;;;;;;7.33;1.93;;;11.70;65.40;;;;;;4944168;29;20454;-79
2021/04/04 07:51:22;;;;;;;2.30;1.80;;;12.80;63.50;;;;;;4947948;29;20453;-79
2021/04/04 07:54:08;;;;;;;4.17;1.90;;;13.30;61.70;;;;;;4946853;29;20438;-79
2021/04/04 07:56:46;;;;;;;3.37;1.97;;;13.00;62.90;;;;;;4950144;29;20411;-80
2021/04/04 07:59:11;;;;;;;6.93;1.90;;;13.30;62.50;;;;;;4952841;28;20420;-80
2021/04/04 08:01:51;;;;;;;3.50;2.40;;;14.10;61.40;;;;;;4941095;29;20538;-80
2021/04/04 08:04:45;;;;;;;8.20;1.83;;;14.80;60.70;;;;;;4946438;28;20222;-80
2021/04/04 08:07:33;;;;;;;2.53;1.90;;;14.90;60.20;;;;;;4942132;29;20418;-80
2021/04/04 08:10:14;;;;;;;2.67;2.10;;;14.90;56.40;;;;;;4958608;29;20505;-78
2021/04/04 08:13:06;;;;;;;2.70;1.97;;;14.40;58.60;;;;;;4950462;29;20907;-78
2021/04/04 08:15:57;;;;;;;3.30;2.20;;;14.40;60.70;;;;;;4952892;28;20497;-78
2021/04/04 08:18:23;;;;;;;4.20;1.73;;;14.10;57.80;;;;;;4954876;29;20422;-78
2021/04/04 08:20:54;;;;;;;1.47;1.37;;;14.60;57.00;;;;;;4954413;29;20838;-78
2021/04/04 08:23:36;;;;;;;3.90;1.53;;;14.30;57.10;;;;;;4954012;29;20176;-79
2021/04/04 08:26:07;;;;;;;3.50;2.00;;;13.60;59.00;;;;;;4954781;29;20434;-79
2021/04/04 08:28:52;;;;;;;2.13;1.60;;;14.10;58.90;;;;;;4956706;28;20525;-79
2021/04/04 08:31:25;;;;;;;2.40;1.60;;;14.20;60.30;;;;;;4962085;28;20547;-79
2021/04/04 08:33:52;;;;;;;3.30;1.60;;;14.30;59.40;;;;;;4957076;29;20427;-79
2021/04/04 08:36:21;;;;;;;3.13;1.70;;;15.00;58.10;;;;;;4954464;28;20427;-79
2021/04/04 08:38:48;;;;;;;2.60;1.50;;;15.10;56.00;;;;;;4954295;28;20431;-79
2021/04/04 08:41:17;;;;;;;3.57;1.47;;;14.00;58.10;;;;;;4953998;28;20433;-79
2021/04/04 08:43:49;;;;;;;4.17;1.93;;;13.30;56.80;;;;;;4951720;29;20419;-79
2021/04/04 08:46:37;;;;;;;4.73;1.40;;;14.10;58.90;;;;;;4953163;29;20474;-79
2021/04/04 08:49:03;;;;;;;2.20;1.33;;;13.30;59.10;;;;;;4966629;28;20438;-79
2021/04/04 08:51:30;;;;;;;2.83;1.33;;;12.60;59.60;;;;;;4959613;28;20881;-79
2021/04/04 08:53:58;;;;;;;3.13;1.20;;;13.30;60.30;;;;;;4954451;28;20190;-79
2021/04/04 08:56:24;;;;;;;2.37;1.20;;;13.50;58.20;;;;;;4956740;28;20449;-79
2021/04/04 08:58:55;;;;;;;3.20;1.57;;;12.30;61.40;;;;;;4958341;28;20450;-80
2021/04/04 09:01:35;;;;;;;2.70;1.30;;;13.30;63.70;;;;;;4973522;28;20631;-79
2021/04/04 09:04:05;;;;;;;4.07;1.37;;;12.70;61.40;;;;;;4958524;28;20407;-79
2021/04/04 09:06:40;;;;;;;3.93;1.53;;;13.00;60.20;;;;;;4956952;29;20797;-78
2021/04/04 09:09:20;;;;;;;3.53;1.53;;;12.30;63.30;;;;;;4957587;28;20410;-78
2021/04/04 09:11:51;;;;;;;6.27;2.07;;;11.50;60.50;;;;;;4957599;28;20450;-79
2021/04/04 09:14:18;;;;;;;3.20;1.80;;;10.90;62.50;;;;;;4957613;28;20450;-79
2021/04/04 09:16:58;;;;;;;2.80;1.80;;;11.20;61.30;;;;;;4958749;28;20425;-78
2021/04/04 09:19:35;;;;;;;5.40;2.27;;;11.40;63.20;;;;;;4956217;28;20461;-79
2021/04/04 09:22:15;;;;;;;2.63;1.83;;;10.80;64.00;;;;;;4957453;28;20769;-78
2021/04/04 09:24:49;;;;;;;3.90;1.97;;;10.90;66.80;;;;;;4957601;28;20446;-78
2021/04/04 09:27:20;;;;;;;5.67;2.63;;;11.30;68.20;;;;;;4955755;29;20425;-79
2021/04/04 09:29:48;;;;;;;3.17;2.30;;;11.50;66.20;;;;;;4961851;28;20465;-79
2021/04/04 09:32:26;;;;;;;5.47;2.70;;;11.70;65.40;;;;;;4972373;28;20477;-78
2021/04/04 09:34:52;;;;;;;6.40;3.00;;;12.00;69.30;;;;;;4981578;28;20442;-78
2021/04/04 09:37:24;;;;;;;5.53;2.10;;;12.50;63.40;;;;;;4956372;29;20526;-78
2021/04/04 09:39:50;;;;;;;3.60;2.30;;;12.30;65.00;;;;;;4956026;29;20837;-78
2021/04/04 09:42:16;;;;;;;2.50;2.07;;;12.40;63.80;;;;;;4957098;29;20418;-78
2021/04/04 09:44:41;;;;;;;4.20;1.90;;;11.90;64.70;;;;;;4958578;28;20503;-77
2021/04/04 09:47:07;;;;;;;2.53;1.53;;;10.60;64.30;;;;;;4957585;29;20194;-78
2021/04/04 09:49:36;;;;;;;4.10;1.73;;;10.40;67.80;;;;;;4957648;29;20225;-77
2021/04/04 09:52:27;;;;;;;6.03;2.00;;;10.30;66.60;;;;;;4957078;29;20294;-78
2021/04/04 09:55:14;;;;;;;6.50;1.87;;;10.20;67.20;;;;;;4957666;28;20439;-79
2021/04/04 09:57:50;;;;;;;6.40;2.27;;;10.00;70.00;;;;;;4956534;28;20418;-79
2021/04/04 10:00:31;;;;;;;3.27;1.67;;;9.00;69.50;;;;;;4971826;28;20922;-79
2021/04/04 10:02:58;;;;;;;1.90;1.70;;;9.50;70.40;;;;;;4956785;29;20407;-78
2021/04/04 10:05:32;;;;;;;4.87;2.17;;;9.90;69.50;;;;;;4956525;28;20438;-78
2021/04/04 10:08:12;;;;;;;5.53;2.03;;;10.70;73.70;;;;;;4955040;28;20505;-77
2021/04/04 10:10:59;;;;;;;4.70;2.10;;;11.30;69.90;;;;;;4956556;28;20516;-79
2021/04/04 10:13:26;;;;;;;2.50;1.87;;;12.40;69.70;;;;;;4956124;29;20481;-78
2021/04/04 10:15:53;;;;;;;2.17;1.60;;;13.10;66.90;;;;;;4956219;28;20459;-78
2021/04/04 10:18:20;;;;;;;6.93;1.80;;;12.00;69.10;;;;;;4955911;28;20437;-77
2021/04/04 10:20:52;;;;;;;3.97;2.10;;;10.60;67.50;;;;;;4955201;29;20482;-79
2021/04/04 10:23:18;;;;;;;3.70;2.17;;;10.20;69.30;;;;;;4956189;28;20907;-78
2021/04/04 10:26:07;;;;;;;8.67;2.33;;;10.00;69.90;;;;;;4956136;28;20526;-79
2021/04/04 10:28:54;;;;;;;6.87;2.17;;;10.70;74.60;;;;;;4956230;28;20446;-78
2021/04/04 10:31:22;;;;;;;2.40;1.70;;;11.30;75.60;;;;;;4937037;29;20463;-78
2021/04/04 10:34:03;;;;;;;5.03;1.93;;;11.70;72.80;;;;;;4937378;29;20419;-79
2021/04/04 10:36:29;;;;;;;4.13;2.00;;;12.00;73.20;;;;;;4937644;29;20407;-78
2021/04/04 10:38:56;;;;;;;3.40;1.60;;;11.80;66.40;;;;;;4954082;29;20422;-78
2021/04/04 10:41:36;;;;;;;2.87;1.63;;;11.40;68.40;;;;;;4956542;28;20478;-78
2021/04/04 10:44:04;;;;;;;6.63;2.03;;;10.60;69.30;;;;;;4956754;28;20781;-78
2021/04/04 10:46:33;;;;;;;3.43;2.27;;;10.60;71.50;;;;;;4962185;28;20446;-78
2021/04/04 10:49:00;;;;;;;4.40;1.90;;;9.50;70.40;;;;;;4956594;28;20419;-78
2021/04/04 10:51:27;;;;;;;3.10;1.83;;;9.30;72.50;;;;;;4957428;28;20541;-78
2021/04/04 10:53:53;;;;;;;4.23;1.77;;;9.10;74.60;;;;;;4955553;29;20525;-79
2021/04/04 10:56:18;;;;;;;6.30;2.23;;;9.40;73.00;;;;;;4956310;28;20483;-78
2021/04/04 10:58:45;;;;;;;2.90;1.63;;;9.30;73.70;;;;;;4956257;28;20183;-77
2021/04/04 11:01:13;;;;;;;5.93;2.10;;;9.90;74.50;;;;;;4955332;29;20194;-78
2021/04/04 11:03:43;;;;;;;4.67;1.90;;;10.50;74.90;;;;;;4956519;28;20418;-78
2021/04/04 11:06:10;;;;;;;4.70;2.30;;;10.90;68.80;;;;;;4956363;28;20938;-78
2021/04/04 11:08:36;;;;;;;3.07;1.60;;;10.90;69.00;;;;;;4954063;29;20431;-78
2021/04/04 11:11:02;;;;;;;1.93;1.60;;;11.60;73.40;;;;;;4956528;29;20958;-78
2021/04/04 11:13:28;;;;;;;4.00;2.00;;;12.10;73.30;;;;;;4957001;29;20194;-79
2021/04/04 11:16:05;;;;;;;4.20;1.87;;;12.40;73.50;;;;;;4957481;28;20462;-78
2021/04/04 11:18:34;;;;;;;2.97;2.27;;;12.70;70.50;;;;;;4955944;28;20195;-79
2021/04/04 11:21:03;;;;;;;2.73;1.83;;;12.70;69.40;;;;;;4956590;28;20453;-78
2021/04/04 11:23:29;;;;;;;8.40;2.77;;;12.70;68.50;;;;;;4955094;29;20793;-77
2021/04/04 11:25:55;;;;;;;5.03;2.03;;;12.50;68.40;;;;;;4955800;28;20442;-78
2021/04/04 11:28:24;;;;;;;7.03;2.00;;;12.10;68.60;;;;;;4955231;29;20502;-78
2021/04/04 11:30:51;;;;;;;2.70;1.43;;;12.40;70.60;;;;;;4954188;28;20811;-77
2021/04/04 11:33:20;;;;;;;5.80;2.03;;;12.20;69.40;;;;;;4955881;28;20425;-78
2021/04/04 11:36:09;;;;;;;4.93;2.00;;;12.20;67.50;;;;;;4955710;29;20447;-78
2021/04/04 11:38:49;;;;;;;2.53;1.97;;;11.30;64.90;;;;;;4958298;28;20411;-80
2021/04/04 11:41:19;;;;;;;3.87;1.97;;;11.30;69.10;;;;;;4957782;28;20414;-80
2021/04/04 11:43:48;;;;;;;3.53;1.93;;;12.00;69.10;;;;;;4957338;28;20418;-80
2021/04/04 11:46:39;;;;;;;2.23;1.30;;;11.10;67.10;;;;;;4956286;28;20461;-81
2021/04/04 11:49:24;;;;;;;4.70;1.93;;;10.80;69.90;;;;;;4958359;29;20421;-79
2021/04/04 11:51:50;;;;;;;4.40;2.33;;;11.00;70.30;;;;;;4956701;29;20480;-78
2021/04/04 11:54:44;;;;;;;2.90;2.00;;;10.20;68.60;;;;;;4950211;28;21185;-78
2021/04/04 11:57:12;;;;;;;4.23;2.10;;;9.60;70.80;;;;;;4940979;29;20171;-79
2021/04/04 11:59:37;;;;;;;2.37;1.70;;;10.40;77.90;;;;;;4955669;29;20824;-78
2021/04/04 12:02:03;;;;;;;4.07;2.53;;;11.20;69.90;;;;;;4954686;28;20410;-78
2021/04/04 12:04:32;;;;;;;3.93;2.13;;;10.20;69.20;;;;;;4954556;28;20681;-78
2021/04/04 12:07:20;;;;;;;7.00;2.33;;;10.10;72.10;;;;;;4954292;28;20418;-78
2021/04/04 12:09:48;;;;;;;4.30;2.20;;;10.30;73.80;;;;;;4949003;29;20431;-78
2021/04/04 12:12:14;;;;;;;5.67;2.83;;;10.20;73.00;;;;;;4954167;28;20502;-78
2021/04/04 12:14:48;;;;;;;6.03;2.17;;;10.60;73.30;;;;;;4953836;28;20878;-78
2021/04/04 12:17:17;;;;;;;3.17;2.13;;;11.00;75.40;;;;;;4954033;29;20940;-78
2021/04/04 12:19:44;;;;;;;2.40;1.83;;;10.90;69.00;;;;;;4954574;29;20483;-78
2021/04/04 12:22:10;;;;;;;5.83;2.80;;;10.70;73.20;;;;;;4954594;29;20418;-77
2021/04/04 12:24:42;;;;;;;5.90;2.53;;;10.90;69.50;;;;;;4954356;28;21012;-79
2021/04/04 12:27:08;;;;;;;3.20;2.10;;;11.00;72.90;;;;;;4953942;29;20473;-77
2021/04/04 12:29:47;;;;;;;2.57;2.10;;;11.00;69.60;;;;;;4954417;29;20442;-78
2021/04/04 12:32:40;;;;;;;2.50;2.07;;;10.30;70.40;;;;;;4953957;29;20458;-77
2021/04/04 12:35:06;;;;;;;5.27;2.43;;;10.20;74.20;;;;;;4952283;28;20447;-78
2021/04/04 12:37:36;;;;;;;3.60;2.50;;;10.50;71.00;;;;;;4953749;28;20422;-78
2021/04/04 12:40:04;;;;;;;6.47;3.00;;;11.10;69.60;;;;;;4954073;29;20403;-78
2021/04/04 12:42:32;;;;;;;3.93;2.43;;;11.20;72.30;;;;;;4953956;29;20442;-78
2021/04/04 12:44:59;;;;;;;3.23;2.07;;;11.60;73.70;;;;;;4953813;28;20465;-78
2021/04/04 12:47:26;;;;;;;5.30;1.90;;;11.80;71.00;;;;;;4953664;29;20423;-78
2021/04/04 12:49:54;;;;;;;5.80;2.30;;;12.40;73.30;;;;;;4954044;29;20438;-78
2021/04/04 12:52:39;;;;;;;6.87;2.30;;;12.50;67.20;;;;;;4953906;29;20538;-78
2021/04/04 12:55:12;;;;;;;5.47;2.70;;;11.80;66.70;;;;;;4953939;28;20485;-78
2021/04/04 12:57:38;;;;;;;6.83;2.43;;;11.50;69.10;;;;;;4953439;29;20415;-78
2021/04/04 13:00:12;;;;;;;6.30;2.47;;;11.30;70.80;;;;;;4953866;29;20449;-78
2021/04/04 13:02:37;;;;;;;5.53;2.77;;;11.90;71.50;;;;;;4953801;29;20182;-78
2021/04/04 13:05:03;;;;;;;2.50;1.90;;;12.00;70.00;;;;;;4953869;28;20427;-78
2021/04/04 13:07:29;;;;;;;5.30;2.47;;;12.40;70.30;;;;;;4952160;29;20816;-78
2021/04/04 13:09:54;;;;;;;5.40;2.77;;;12.30;72.00;;;;;;4953845;29;20493;-78
2021/04/04 13:12:20;;;;;;;9.53;2.90;;;12.20;70.90;;;;;;4953554;28;20294;-78
2021/04/04 13:14:46;;;;;;;4.63;2.40;;;12.10;65.40;;;;;;4953590;28;20302;-78
2021/04/04 13:17:11;;;;;;;9.57;2.70;;;11.90;69.00;;;;;;4952201;29;20544;-78
2021/04/04 13:19:40;;;;;;;4.47;2.50;;;11.10;69.40;;;;;;4953719;28;20507;-78
2021/04/04 13:22:09;;;;;;;6.13;3.13;;;10.80;70.80;;;;;;4953652;29;20230;-78
2021/04/04 13:24:35;;;;;;;9.07;2.80;;;11.50;74.10;;;;;;4953572;28;20505;-78
2021/04/04 13:27:01;;;;;;;5.90;2.50;;;12.20;72.80;;;;;;4953203;29;20501;-78
2021/04/04 13:29:38;;;;;;;3.53;2.30;;;12.60;70.80;;;;;;4968512;28;20187;-78
2021/04/04 13:32:04;;;;;;;7.67;2.90;;;12.70;70.60;;;;;;4953578;29;20497;-78
2021/04/04 13:34:39;;;;;;;4.93;2.47;;;12.10;67.30;;;;;;4953494;28;20422;-78
2021/04/04 13:37:04;;;;;;;5.70;2.40;;;10.70;69.00;;;;;;4953101;28;20500;-78
2021/04/04 13:39:34;;;;;;;5.63;2.40;;;10.20;73.00;;;;;;4953666;29;21054;-78
2021/04/04 13:42:01;;;;;;;4.57;2.70;;;10.40;74.80;;;;;;4953612;28;20178;-78
2021/04/04 13:44:27;;;;;;;5.73;2.60;;;10.40;71.60;;;;;;4957017;28;20480;-78
2021/04/04 13:46:54;;;;;;;4.00;2.67;;;9.60;75.00;;;;;;4956728;29;20415;-78
2021/04/04 13:49:22;;;;;;;8.93;3.30;;;9.20;76.50;;;;;;4956525;29;20206;-78
2021/04/04 13:51:49;;;;;;;4.80;2.13;;;9.90;76.40;;;;;;4956846;29;20458;-78
2021/04/04 13:54:20;;;;;;;4.30;2.40;;;10.10;72.80;;;;;;4955589;28;20435;-79
2021/04/04 13:56:48;;;;;;;8.57;3.00;;;10.50;74.40;;;;;;4956829;29;20403;-78
2021/04/04 13:59:18;;;;;;;3.93;2.10;;;10.70;73.20;;;;;;4956179;29;20505;-78
2021/04/04 14:02:00;;;;;;;4.43;2.13;;;10.90;73.60;;;;;;4956684;29;20422;-78
2021/04/04 14:04:36;;;;;;;4.80;3.10;;;10.50;72.80;;;;;;4955319;28;20965;-78
2021/04/04 14:07:10;;;;;;;4.87;2.67;;;9.90;74.30;;;;;;4956221;29;20430;-78
2021/04/04 14:09:38;;;;;;;6.30;2.00;;;9.50;76.20;;;;;;4956649;29;20510;-78
2021/04/04 14:12:05;;;;;;;5.37;2.23;;;9.60;76.00;;;;;;4956767;29;20989;-78
2021/04/04 14:14:31;;;;;;;4.40;2.50;;;10.00;75.70;;;;;;4956295;28;20964;-77
2021/04/04 14:16:59;;;;;;;7.70;2.63;;;10.40;74.00;;;;;;4956205;29;20445;-78
2021/04/04 14:19:25;;;;;;;6.63;2.50;;;10.60;72.00;;;;;;4956190;29;20186;-78
2021/04/04 14:21:51;;;;;;;9.07;2.70;;;10.60;71.30;;;;;;4956393;28;20430;-78
2021/04/04 14:24:17;;;;;;;4.40;2.47;;;11.00;77.80;;;;;;4954859;28;20485;-78
2021/04/04 14:26:43;;;;;;;8.60;2.90;;;11.40;75.30;;;;;;4956306;29;20414;-78
2021/04/04 14:29:09;;;;;;;4.27;2.13;;;11.50;70.00;;;;;;4955732;29;20521;-78
2021/04/04 14:31:35;;;;;;;5.70;2.80;;;11.60;68.80;;;;;;4956053;29;20203;-78
2021/04/04 14:34:01;;;;;;;22.90;3.00;;;11.70;69.80;;;;;;4956086;28;20410;-78
2021/04/04 14:36:26;;;;;;;5.00;2.50;;;11.80;69.20;;;;;;4956109;28;20167;-78
2021/04/04 14:38:52;;;;;;;4.47;2.57;;;11.60;68.40;;;;;;4955515;29;20682;-78
2021/04/04 14:41:18;;;;;;;6.20;2.53;;;11.60;70.60;;;;;;4956102;29;20206;-78
2021/04/04 14:46:28;;;;;;;5.53;2.50;;;11.10;69.00;;;;;;4956170;29;20685;-78
2021/04/04 14:48:54;;;;;;;6.03;2.60;;;11.20;70.30;;;;;;4955529;29;20454;-78
2021/04/04 14:51:20;;;;;;;3.20;2.30;;;11.50;70.80;;;;;;4955813;29;20493;-78
2021/04/04 14:53:46;;;;;;;4.80;2.57;;;12.00;72.10;;;;;;4955679;28;20444;-78
2021/04/04 14:56:11;;;;;;;5.63;2.50;;;11.70;69.00;;;;;;4955768;28;20625;-78
2021/04/04 14:58:38;;;;;;;7.90;3.40;;;11.30;69.50;;;;;;4955369;28;20194;-78
2021/04/04 15:01:05;;;;;;;5.50;2.70;;;10.90;72.50;;;;;;4953759;29;20302;-78
2021/04/04 15:03:30;;;;;;;4.57;2.50;;;11.10;73.00;;;;;;4955622;29;20506;-78
2021/04/04 15:05:56;;;;;;;4.07;2.67;;;11.50;69.20;;;;;;4955625;28;20848;-78
2021/04/04 15:08:21;;;;;;;8.77;2.53;;;11.10;72.40;;;;;;4955253;28;20179;-78
2021/04/04 15:10:49;;;;;;;5.63;2.60;;;11.30;72.40;;;;;;4955604;29;20205;-78
2021/04/04 15:13:15;;;;;;;4.43;2.63;;;11.30;71.90;;;;;;4955578;28;20166;-78
2021/04/04 15:15:42;;;;;;;9.93;3.27;;;11.50;68.50;;;;;;4955386;28;20453;-78
2021/04/04 15:18:09;;;;;;;6.33;2.63;;;11.20;71.00;;;;;;4955036;28;20497;-78
2021/04/04 15:20:35;;;;;;;4.80;2.60;;;11.30;71.80;;;;;;4955452;29;20490;-78
2021/04/04 15:23:02;;;;;;;7.00;3.07;;;11.00;70.40;;;;;;4954258;28;20438;-78
2021/04/04 15:25:28;;;;;;;5.03;3.03;;;10.90;74.60;;;;;;4954110;28;20431;-78
2021/04/04 15:27:54;;;;;;;6.83;2.60;;;11.20;74.20;;;;;;4954957;29;20414;-78
2021/04/04 15:30:28;;;;;;;6.13;2.97;;;11.30;70.80;;;;;;4954028;29;20265;-78
2021/04/04 15:32:56;;;;;;;5.33;3.20;;;11.10;71.30;;;;;;4955044;29;20398;-78
2021/04/04 15:35:22;;;;;;;15.17;3.53;;;11.00;74.20;;;;;;4955084;28;20427;-78
2021/04/04 15:37:48;;;;;;;8.73;3.00;;;10.90;73.90;;;;;;4954957;28;20423;-79
2021/04/04 15:40:14;;;;;;;7.63;3.90;;;11.00;73.80;;;;;;4955391;29;20410;-79
2021/04/04 15:42:39;;;;;;;11.13;3.70;;;11.10;73.40;;;;;;4953881;28;20179;-78
2021/04/04 15:45:06;;;;;;;5.90;3.47;;;11.20;73.20;;;;;;4953859;28;20202;-79
2021/04/04 15:47:32;;;;;;;6.33;3.10;;;10.90;74.40;;;;;;4954537;29;20225;-79
2021/04/04 15:49:57;;;;;;;4.60;3.20;;;11.00;71.40;;;;;;4953718;29;20411;-79
2021/04/04 15:52:23;;;;;;;6.33;3.50;;;10.90;72.80;;;;;;4955004;29;20206;-78
2021/04/04 15:54:48;;;;;;;5.40;3.23;;;10.80;73.00;;;;;;4954900;28;20195;-78
2021/04/04 15:57:14;;;;;;;10.27;4.10;;;10.80;74.80;;;;;;4954671;29;20225;-78
2021/04/04 15:59:40;;;;;;;6.50;3.13;;;10.70;73.80;;;;;;4954920;29;20179;-79
2021/04/04 16:02:05;;;;;;;6.67;3.50;;;10.50;74.40;;;;;;4954999;29;20222;-79
2021/04/04 16:04:31;;;;;;;6.23;3.43;;;10.30;75.10;;;;;;4954746;28;20244;-78
2021/04/04 16:06:56;;;;;;;14.87;4.00;;;10.20;76.80;;;;;;4968704;28;20302;-79
2021/04/04 16:09:22;;;;;;;6.10;3.57;;;10.10;77.40;;;;;;4954625;29;20175;-78
2021/04/04 16:11:48;;;;;;;6.53;3.10;;;10.10;76.60;;;;;;4955040;29;20190;-78
2021/04/04 16:14:14;;;;;;;5.37;3.30;;;10.30;76.60;;;;;;4955530;28;20217;-78
2021/04/04 16:16:40;;;;;;;7.93;3.70;;;10.20;76.30;;;;;;4975298;28;20403;-79
2021/04/04 16:19:05;;;;;;;13.03;4.43;;;10.10;77.20;;;;;;4960108;29;20407;-78
2021/04/04 16:21:31;;;;;;;8.33;4.80;;;10.00;76.10;;;;;;4955958;29;20194;-79
2021/04/04 16:23:57;;;;;;;8.00;3.67;;;9.60;75.50;;;;;;4954413;28;20230;-79
2021/04/04 16:26:22;;;;;;;5.10;3.73;;;9.50;77.30;;;;;;4953218;29;20553;-79
2021/04/04 16:28:48;;;;;;;5.07;3.53;;;9.40;79.70;;;;;;4953703;29;20639;-79
2021/04/04 16:31:17;;;;;;;12.17;4.33;;;9.40;79.70;;;;;;4954098;29;20206;-78
2021/04/04 16:33:42;;;;;;;9.37;4.10;;;9.50;80.30;;;;;;4952890;29;20426;-79
2021/04/04 16:36:08;;;;;;;9.93;4.00;;;9.60;79.70;;;;;;4954274;28;20426;-78
2021/04/04 16:38:34;;;;;;;9.30;5.43;;;9.60;79.20;;;;;;4953719;29;20179;-78
2021/04/04 16:40:59;;;;;;;11.30;4.57;;;9.40;79.60;;;;;;4954037;29;20547;-79
2021/04/04 16:43:25;;;;;;;10.93;5.30;;;9.30;79.60;;;;;;4954133;29;20217;-79
2021/04/04 16:45:50;;;;;;;11.20;4.80;;;9.20;81.50;;;;;;4954094;28;20226;-79
2021/04/04 16:48:18;;;;;;;10.33;4.80;;;9.10;80.60;;;;;;4953478;29;20187;-78
2021/04/04 16:50:44;;;;;;;14.40;5.90;;;8.90;82.50;;;;;;4953879;29;20210;-78
2021/04/04 16:53:10;;;;;;;10.80;5.20;;;8.80;83.20;;;;;;4953972;29;20418;-78
2021/04/04 16:55:35;;;;;;;9.50;4.60;;;8.60;81.90;;;;;;4953858;28;20438;-79
2021/04/04 16:58:01;;;;;;;10.53;4.90;;;8.50;83.50;;;;;;4953435;29;20174;-78
2021/04/04 17:00:26;;;;;;;13.73;5.80;;;8.50;84.90;;;;;;4953972;28;20554;-78
2021/04/04 17:02:52;;;;;;;16.40;5.67;;;8.30;85.20;;;;;;4953864;29;20262;-78
2021/04/04 17:05:19;;;;;;;10.83;5.47;;;8.10;85.90;;;;;;4953777;28;20199;-79
2021/04/04 17:07:45;;;;;;;13.53;5.73;;;7.90;87.40;;;;;;4953085;28;20179;-78
2021/04/04 17:10:15;;;;;;;15.40;5.50;;;7.80;86.50;;;;;;4953741;28;20425;-78
2021/04/04 17:12:42;;;;;;;15.83;7.10;;;7.60;88.70;;;;;;4953783;29;20535;-78
2021/04/04 17:15:10;;;;;;;15.67;5.67;;;7.20;89.60;;;;;;4952482;28;20477;-78